• Join FlightAware (Why Join?)
  • Login
  • US Flag 
04:34PM EDT


 

Airport Tracker/Info


-or-


 

Live Flight TrackerFlight Track Log ✈ ACA831 ✈ 26-Jun-2013 ✈ LSGG / GVA - CYUL

Flight Track Log - Related Links

Times and Time Zones

All times are in EDT time to prevent confusion due to time zone crossing. See the ACA831 flight status page for this flight to view local times or setup timezone preferences in your user account.

Time Position Orientation Groundspeed Altitude Reporting Facility
EDT Latitude Longitude Course Direction KTS MPH feet Rate Location/Type
06:21AM 46.2320 6.1040 225° Southwest 8 9  Level FlightAware
06:21AM 46.2310 6.1030 215° Southwest 8 9 120 Level FlightAware
06:22AM 46.2300 6.1010 234° Southwest 7 8 120 Level FlightAware
06:23AM 46.2290 6.0990 234° Southwest 8 9 120 Level FlightAware
06:23AM 46.2280 6.0980 215° Southwest 7 8 120 Level FlightAware
06:24AM 46.2270 6.0970 215° Southwest 8 9 180 Level FlightAware
06:24AM 46.2270 6.0960 270° West 9 10 180 Level FlightAware
06:25AM 46.2260 6.0940 234° Southwest 7 8 180 Level FlightAware
06:27AM 46.2260 6.0930 270° West 4 5 240 Level FlightAware
06:29AM 46.2260 6.0920 270° West 4 5 420 Level FlightAware
06:29AM 46.2270 6.0920 360° North 19 22 1,260 Level FlightAware
06:30AM 46.2410 6.1130 46° Northeast 168 193 1,200 2,220 Climbing FlightAware
06:30AM 46.2580 6.1400 48° Northeast 173 199 2,600 2,880 Climbing FlightAware
06:31AM 46.2740 6.1640 46° Northeast 168 193 4,100 2,400 Climbing FlightAware
06:31AM 46.2900 6.1860 44° Northeast 197 227 4,800 2,040 Climbing FlightAware
06:32AM 46.3100 6.2180 48° Northeast 229 264 6,000 2,280 Climbing FlightAware
06:32AM 46.3310 6.2480 45° Northeast 259 298 6,900 2,640 Climbing FlightAware
06:33AM 46.3610 6.2770 34° Northeast 258 297 8,500 3,300 Climbing FlightAware
06:33AM 46.3730 6.2790 North 260 299 9,100 3,360 Climbing FlightAware
06:34AM 46.4150 6.2690 351° North 266 306 11,000 3,360 Climbing FlightAware
06:34AM 46.4660 6.2530 348° North 269 310 13,300 3,120 Climbing FlightAware
06:35AM 46.5170 6.2360 347° North 277 319 15,200 2,100 Climbing FlightAware
06:36AM 46.5730 6.2190 348° North 311 358 16,100 1,440 Climbing FlightAware
06:36AM 46.6330 6.1530 323° Northwest 391 450 17,300 1,680 Climbing FlightAware
06:37AM 46.6680 6.0500 296° West 420 483 18,600 2,160 Climbing FlightAware
06:38AM 46.7020 5.9460 296° West 428 493 20,300 1,680 Climbing FlightAware
06:38AM 46.7410 5.8300 296° West 436 502 21,000 420 Climbing FlightAware
06:39AM 46.7790 5.7150 296° West 434 499 21,000 60 Level FlightAware
06:40AM 46.8120 5.6190 297° West 433 498 21,100 1,380 Climbing FlightAware
06:41AM 46.8530 5.4930 295° West 442 509 23,000 2,220 Climbing FlightAware
06:41AM 46.8900 5.3830 296° West 452 520 24,400 1,980 Climbing FlightAware
06:42AM 46.9290 5.2690 297° West 461 531 25,800 2,160 Climbing FlightAware
06:43AM 46.9670 5.1550 296° West 459 528 27,500 2,520 Climbing FlightAware
06:43AM 47.0080 5.0340 296° West 453 521 29,300 2,400 Climbing FlightAware
06:44AM 47.0440 4.9310 297° West 447 514 30,800 1,920 Climbing FlightAware
06:45AM 47.0980 4.8320 309° West 436 502 32,000 840 Climbing FlightAware
06:45AM 47.1570 4.7400 313° West 433 498 32,000  Level FlightAware
06:46AM 47.2180 4.6540 316° Northwest 432 497 32,000  Level FlightAware
06:47AM 47.2800 4.5710 318° Northwest 436 502 32,000  Level FlightAware
06:48AM 47.3460 4.4810 317° Northwest 437 503 32,000  Level FlightAware
06:48AM 47.4030 4.4040 318° Northwest 438 504 32,000  Level FlightAware
06:49AM 47.4760 4.3040 317° Northwest 438 504 32,000  Level FlightAware
06:50AM 47.5320 4.2270 317° Northwest 439 505 32,000  Level FlightAware
06:50AM 47.5900 4.1460 317° Northwest 438 504 32,000  Level FlightAware
06:51AM 47.6540 4.0580 317° Northwest 438 504 32,000  Level FlightAware
06:52AM 47.7140 3.9760 317° Northwest 437 503 32,000  Level FlightAware
06:52AM 47.7830 3.8800 317° Northwest 437 503 32,000  Level FlightAware
06:53AM 47.8550 3.7790 317° Northwest 435 501 32,000  Level FlightAware
06:54AM 47.9210 3.6870 317° Northwest 433 498 32,000  Level FlightAware
06:55AM 47.9910 3.5900 317° Northwest 431 496 32,000  Level FlightAware
06:55AM 48.0480 3.5090 316° Northwest 430 495 32,000  Level FlightAware
06:56AM 48.1100 3.4210 317° Northwest 429 494 32,000  Level FlightAware
06:57AM 48.1720 3.3330 317° Northwest 428 493 32,000  Level FlightAware
06:58AM 48.2330 3.2470 317° Northwest 427 491 32,000  Level FlightAware
06:58AM 48.2880 3.1690 317° Northwest 427 491 32,000  Level FlightAware
06:59AM 48.3520 3.0780 317° Northwest 426 490 32,000  Level FlightAware
07:00AM 48.3990 3.0060 315° West 428 493 32,000  Level FlightAware
07:00AM 48.4400 2.8790 296° West 435 501 32,000  Level FlightAware
07:01AM 48.4630 2.7620 287° West 434 499 32,000  Level FlightAware
07:02AM 48.4850 2.6480 286° West 433 498 32,000  Level FlightAware
07:02AM 48.5110 2.5140 286° West 434 499 32,000  Level FlightAware
07:03AM 48.5360 2.3820 286° West 434 499 32,000  Level FlightAware
07:04AM 48.5560 2.2760 286° West 433 498 32,000  Level FlightAware
07:05AM 48.5820 2.1380 286° West 433 498 32,000  Level FlightAware
07:06AM 48.6100 1.9900 286° West 433 498 32,000  Level FlightAware
07:06AM 48.6330 1.8600 285° West 434 499 32,000  Level FlightAware
07:07AM 48.6541 1.7481 285° West 470 541 32,000  Level FlightAware UK
07:07AM 48.6550 1.7430 285° West 433 498 32,000  Level FlightAware
07:08AM 48.6790 1.6140 286° West 432 497 32,000  Level FlightAware
07:08AM 48.7000 1.4950 285° West 432 497 32,000  Level FlightAware
07:09AM 48.7230 1.3680 285° West 431 496 32,000  Level FlightAware
07:09AM 48.7236 1.3644 285° West 472 543 32,000  Level FlightAware UK
07:10AM 48.7391 1.2772 285° West 470 541 32,000  Level FlightAware UK
07:10AM 48.7460 1.2440 285° West 430 495 32,000  Level FlightAware
07:10AM 48.7660 1.1270 285° West 430 495 32,000  Level FlightAware
07:11AM 48.7840 1.0270 285° West 429 494 32,000  Level FlightAware
07:12AM 48.8060 0.9050 285° West 429 494 32,000  Level FlightAware
07:12AM 48.8300 0.7620 284° West 430 495 32,000  Level FlightAware
07:13AM 48.8490 0.6511 284° West 470 541 32,000  Level FlightAware UK
07:13AM 48.8520 0.6380 284° West 429 494 32,000  Level FlightAware
07:14AM 48.8708 0.5328 284° West 472 543 32,000  Level FlightAware UK
07:14AM 48.8730 0.5150 284° West 429 494 32,000  Level FlightAware
07:15AM 48.8920 0.4020 284° West 429 494 32,000  Level FlightAware
07:15AM 48.8943 0.3928 284° West 472 543 32,000  Level FlightAware UK
07:15AM 48.9120 0.2870 285° West 429 494 32,000  Level FlightAware
07:16AM 48.9360 0.1460 285° West 429 494 32,000  Level FlightAware
07:17AM 48.9620 -0.0120 284° West 429 494 32,000  Level FlightAware
07:18AM 48.9810 -0.1280 284° West 427 491 32,000  Level FlightAware
07:18AM 49.0040 -0.2690 284° West 428 493 32,000  Level FlightAware
07:19AM 49.0181 -0.3597 284° West 472 543 32,000  Level FlightAware UK
07:19AM 49.0220 -0.3740 284° West 428 493 32,000  Level FlightAware
07:20AM 49.0444 -0.5179 284° West 472 543 32,000  Level FlightAware UK
07:20AM 49.0500 -0.5470 284° West 429 494 32,000  Level FlightAware
07:20AM 49.0640 -0.6405 284° West 474 545 32,000  Level FlightAware UK
07:21AM 49.0670 -0.6560 284° West 429 494 32,000  Level FlightAware
07:21AM 49.0870 -0.7810 284° West 430 495 32,000  Level FlightAware
07:21AM 49.0892 -0.7985 284° West 472 543 32,000  Level FlightAware UK
07:22AM 49.1070 -0.9060 284° West 430 495 32,000  Level FlightAware
07:23AM 49.1290 -1.0450 284° West 431 496 32,000  Level FlightAware
07:23AM 49.1470 -1.1630 284° West 432 497 32,000  Level FlightAware
07:23AM 49.1471 -1.1693 284° West 474 545 32,000  Level FlightAware UK
07:24AM 49.1650 -1.2780 284° West 432 497 32,000  Level FlightAware
07:25AM 49.1860 -1.4150 283° West 432 497 32,000  Level FlightAware
07:26AM 49.2040 -1.5350 283° West 433 498 32,000  Level FlightAware
07:26AM 49.2240 -1.6690 283° West 433 498 32,000  Level FlightAware
07:27AM 49.2420 -1.7890 283° West 432 497 32,000  Level FlightAware
07:27AM 49.2557 -1.8808 283° West 474 545 32,000  Level FlightAware UK
07:28AM 49.2560 -1.8810 283° West 433 498 32,000  Level FlightAware
07:28AM 49.2788 -2.0422 283° West 474 545 32,000  Level FlightAware UK
07:28AM 49.2780 -2.0330 283° West 434 499 32,000  Level FlightAware
07:29AM 49.2949 -2.1504 283° West 476 548 32,000  Level FlightAware UK
07:29AM 49.2970 -2.1610 283° West 434 499 32,000  Level FlightAware
07:29AM 49.3080 -2.2350 283° West 435 501 32,000  Level FlightAware
07:30AM 49.3293 -2.3848 283° West 476 548 32,000  Level FlightAware UK
07:31AM 49.3444 -2.4926 282° West 476 548 32,000  Level FlightAware UK
07:31AM 49.3410 -2.4670 282° West 436 502 32,000  Level FlightAware
07:32AM 49.3640 -2.6260 283° West 435 501 32,000  Level FlightAware
07:32AM 49.3850 -2.7780 282° West 435 501 32,000  Level FlightAware
07:33AM 49.4010 -2.8920 282° West 436 502 32,000  Level FlightAware
07:34AM 49.4190 -3.0280 282° West 436 502 32,000  Level FlightAware
07:35AM 49.4370 -3.1590 282° West 437 503 32,000  Level FlightAware
07:35AM 49.4520 -3.2690 282° West 438 504 32,000  Level FlightAware
07:36AM 49.4720 -3.4130 282° West 439 505 32,000  Level FlightAware
07:37AM 49.4880 -3.5380 282° West 440 506 32,000  Level FlightAware
07:37AM 49.4888 -3.5440 282° West 474 545 32,000  Level FlightAware UK
07:37AM 49.5009 -3.6360 282° West 472 543 32,000  Level FlightAware UK
07:37AM 49.5060 -3.6730 282° West 441 507 32,000  Level FlightAware
07:38AM 49.5230 -3.7960 282° West 442 509 32,000  Level FlightAware
07:39AM 49.5380 -3.9130 281° West 443 510 32,000  Level FlightAware
07:39AM 49.5570 -4.0560 281° West 444 511 32,000  Level FlightAware
07:39AM 49.5572 -4.0604 281° West 474 545 32,000  Level FlightAware UK
07:40AM 49.5740 -4.1850 282° West 445 512 32,000  Level FlightAware
07:41AM 49.5900 -4.3150 281° West 446 513 32,000  Level FlightAware
07:41AM 49.6051 -4.4323 281° West 474 545 32,000  Level FlightAware UK
07:42AM 49.6080 -4.4540 281° West 447 514 32,000  Level FlightAware
07:42AM 49.6230 -4.5690 281° West 448 516 32,000  Level FlightAware
07:43AM 49.6400 -4.7090 281° West 447 514 32,000  Level FlightAware
07:44AM 49.6570 -4.8460 281° West 449 517 32,000  Level FlightAware
07:44AM 49.6730 -4.9790 281° West 450 518 32,000  Level FlightAware
07:45AM 49.6870 -5.0890 281° West 450 518 32,000  Level FlightAware
07:46AM 49.7110 -5.2920 280° West 452 520 32,000  Level FlightAware
07:47AM 49.7260 -5.4190 280° West 453 521 32,000  Level FlightAware
07:47AM 49.7420 -5.5580 280° West 453 521 32,000  Level FlightAware
07:48AM 49.7562 -5.6809 280° West 476 548 32,000  Level FlightAware UK
07:48AM 49.7570 -5.6870 280° West 453 521 32,000  Level FlightAware
07:49AM 49.7694 -5.7955 280° West 476 548 32,000  Level FlightAware UK
07:49AM 49.7730 -5.8200 280° West 454 522 32,000  Level FlightAware
07:49AM 49.7880 -5.9540 280° West 453 521 32,000  Level FlightAware
07:50AM 49.8030 -6.0890 280° West 454 522 32,000  Level FlightAware
07:51AM 49.8180 -6.2240 280° West 454 522 32,000  Level FlightAware
07:51AM 49.8188 -6.2352 280° West 476 548 32,000  Level FlightAware UK
07:51AM 49.8294 -6.3312 280° West 476 548 32,000  Level FlightAware UK
07:52AM 49.8340 -6.3660 280° West 454 522 32,000  Level FlightAware
07:52AM 49.8460 -6.4810 279° West 454 522 32,000  Level FlightAware
07:53AM 49.8609 -6.6191 279° West 472 543 32,000  Level FlightAware UK
07:53AM 49.8630 -6.6300 279° West 452 520 32,000  Level FlightAware
07:54AM 49.8830 -6.7560 284° West 453 521 32,000  Level FlightAware
07:54AM 49.9073 -6.9017 284° West 466 536 32,000  Level FlightAware UK
07:54AM 49.9080 -6.9020 284° West 458 527 32,000  Level FlightAware
07:55AM 49.9242 -6.9968 284° West 468 539 32,000  Level FlightAware UK
07:55AM 49.9300 -7.0290 284° West 463 533 32,000  Level FlightAware
07:56AM 49.9510 -7.1460 286° West 468 539 32,000  Level FlightAware
07:57AM 49.9780 -7.3020 285° West 474 545 32,000  Level FlightAware
07:57AM 49.9953 -7.4064 285° West 474 545 32,000  Level FlightAware UK
07:57AM 50.0000 -7.4340 285° West 480 552 32,000  Level FlightAware
07:58AM 50.0220 -7.5670 284° West 483 556 32,000  Level FlightAware
07:59AM 50.0455 -7.7081 284° West 482 555 32,000  Level FlightAware UK
07:59AM 50.0560 -7.7730 284° West 487 560 32,000 1,200 Level FlightAware
08:00AM 50.0784 -7.9110 284° West 478 550 33,200 1,800 Climbing FlightAware UK
08:00AM 50.0790 -7.9110 284° West 475 547 33,300 840 Climbing FlightAware
08:00AM 50.1070 -8.0830 284° West 466 536 34,000 420 Climbing FlightAware
08:01AM 50.1288 -8.2219 284° West 468 539 34,000  Level FlightAware UK
08:01AM 50.1310 -8.2310 284° West 461 531 34,000  Level FlightAware
08:02AM 50.1510 -8.3600 284° West 462 532 34,000  Level FlightAware
08:03AM 50.1720 -8.4920 284° West 466 536 34,000  Level FlightAware
08:03AM 50.1906 -8.6098 284° West 472 543 34,000  Level FlightAware UK
08:03AM 50.1920 -8.6160 284° West 468 539 34,000  Level FlightAware
08:04AM 50.2170 -8.7760 284° West 469 540 34,000  Level FlightAware
08:05AM 50.2364 -8.9056 284° West 478 550 34,000  Level FlightAware UK
08:05AM 50.2380 -8.9150 284° West 467 537 34,000  Level FlightAware
08:05AM 50.2590 -9.0510 284° West 465 535 34,000  Level FlightAware
08:06AM 50.2780 -9.1750 284° West 464 534 34,000  Level FlightAware
08:07AM 50.3010 -9.3290 283° West 463 533 34,000  Level FlightAware
08:08AM 50.3210 -9.4670 283° West 462 532 34,000  Level FlightAware
08:08AM 50.3380 -9.5770 284° West 462 532 34,000  Level FlightAware
08:09AM 50.3590 -9.7220 283° West 461 531 34,000  Level FlightAware
08:10AM 50.3780 -9.8520 283° West 459 528 34,000  Level FlightAware
08:10AM 50.3960 -9.9790 283° West 459 528 34,000  Level FlightAware
08:11AM 50.4230 -10.1690 283° West 458 527 34,000  Level FlightAware
08:12AM 50.4440 -10.3160 283° West 458 527 34,000  Level FlightAware
08:13AM 50.4620 -10.4480 282° West 458 527 34,000  Level FlightAware
08:14AM 50.4870 -10.6260 283° West 459 528 34,000  Level FlightAware
08:14AM 50.5070 -10.7690 282° West 459 528 34,000  Level FlightAware
08:17AM 50.5885 -11.1586 288° West  Level Estimated
08:18AM 50.6240 -11.3308 288° West  Level Estimated
08:18AM 50.5910 -11.4100 288° West 457 526 34,000  Level FlightAware
08:18AM 50.6040 -11.5130 281° West 457 526 34,000  Level FlightAware
08:19AM 50.6170 -11.6160 281° West 457 526 34,000  Level FlightAware
08:20AM 50.6460 -11.8520 281° West 457 526 34,000  Level FlightAware
08:21AM 50.6630 -11.9910 281° West 457 526 34,000  Level FlightAware
08:22AM 50.6740 -12.0830 281° West 457 526 34,000  Level FlightAware
08:22AM 50.6910 -12.2170 281° West 457 526 34,000  Level FlightAware
08:23AM 50.7040 -12.3230 281° West 457 526 34,000  Level FlightAware
08:24AM 50.7200 -12.4570 281° West 457 526 34,000  Level FlightAware
08:24AM 50.7320 -12.5540 281° West 457 526 34,000  Level FlightAware
08:25AM 50.7530 -12.7210 281° West 457 526 34,000  Level FlightAware
08:26AM 50.7660 -12.8300 281° West 457 526 34,000  Level FlightAware
08:27AM 50.7820 -12.9580 281° West 457 526 34,000  Level FlightAware
08:30AM 50.8684 -13.4142 287° West  Level Estimated
08:31AM 50.9009 -13.5890 287° West  Level Estimated
08:32AM 50.9332 -13.7640 286° West  Level Estimated
08:33AM 50.9652 -13.9393 286° West  Level Estimated
08:34AM 50.9969 -14.1148 286° West  Level Estimated
08:35AM 51.0284 -14.2906 286° West  Level Estimated
08:36AM 51.0597 -14.4666 286° West  Level Estimated
08:37AM 51.0906 -14.6428 286° West  Level Estimated
08:38AM 51.1213 -14.8193 286° West  Level Estimated
08:39AM 51.1517 -14.9960 285° West  Level Estimated
08:40AM 51.1819 -15.1729 285° West  Level Estimated
08:41AM 51.2118 -15.3501 285° West  Level Estimated
08:42AM 51.2414 -15.5275 285° West  Level Estimated
08:43AM 51.2708 -15.7051 285° West  Level Estimated
08:44AM 51.2999 -15.8829 285° West  Level Estimated
08:45AM 51.3287 -16.0610 285° West  Level Estimated
08:46AM 51.3573 -16.2393 284° West  Level Estimated
08:47AM 51.3855 -16.4178 284° West  Level Estimated
08:48AM 51.4135 -16.5965 284° West  Level Estimated
08:49AM 51.4413 -16.7755 284° West  Level Estimated
08:50AM 51.4687 -16.9547 284° West  Level Estimated
08:51AM 51.4959 -17.1340 284° West  Level Estimated
08:52AM 51.5229 -17.3136 284° West  Level Estimated
08:53AM 51.5495 -17.4934 283° West  Level Estimated
08:54AM 51.5759 -17.6735 283° West  Level Estimated
08:55AM 51.6020 -17.8537 283° West  Level Estimated
08:56AM 51.6278 -18.0341 283° West  Level Estimated
08:57AM 51.6533 -18.2148 283° West  Level Estimated
08:58AM 51.6786 -18.3956 283° West  Level Estimated
08:59AM 51.7035 -18.5766 283° West  Level Estimated
09:00AM 51.7282 -18.7579 282° West  Level Estimated
09:01AM 51.7527 -18.9393 282° West  Level Estimated
09:02AM 51.7768 -19.1209 282° West  Level Estimated
09:03AM 51.8007 -19.3028 282° West  Level Estimated
09:04AM 51.8242 -19.4848 282° West  Level Estimated
09:04AM 50.0000 -20.0000 257° West 465 535 34,000  Level ETMS Enhanced Traffic Management System
09:05AM 51.8475 -19.6670 282° West  Level Estimated
09:06AM 51.8706 -19.8494 282° West  Level Estimated
09:07AM 51.8933 -20.0319 281° West  Level Estimated
09:08AM 51.9158 -20.2147 281° West  Level Estimated
09:09AM 51.9379 -20.3976 281° West  Level Estimated
09:10AM 49.7545 -21.5592 256° West 465 535 34,000  Level FlightAware Transoceanic
09:11AM 49.7223 -21.7530 256° West 465 535 34,000  Level FlightAware Transoceanic
09:12AM 49.6898 -21.9465 255° West 465 535 34,000  Level FlightAware Transoceanic
09:13AM 49.6570 -22.1398 255° West 465 535 34,000  Level FlightAware Transoceanic
09:14AM 49.6239 -22.3328 255° West 465 535 34,000  Level FlightAware Transoceanic
09:15AM 49.5905 -22.5255 255° West 465 535 34,000  Level FlightAware Transoceanic
09:16AM 49.5567 -22.7180 255° West 465 535 34,000  Level FlightAware Transoceanic
09:17AM 49.5226 -22.9102 255° West 465 535 34,000  Level FlightAware Transoceanic
09:18AM 49.4882 -23.1021 254° West 465 535 34,000  Level FlightAware Transoceanic
09:19AM 49.4535 -23.2937 254° West 465 535 34,000  Level FlightAware Transoceanic
09:20AM 49.4185 -23.4851 254° West 465 535 34,000  Level FlightAware Transoceanic
09:21AM 49.3831 -23.6762 254° West 465 535 34,000  Level FlightAware Transoceanic
09:22AM 49.3475 -23.8671 254° West 465 535 34,000  Level FlightAware Transoceanic
09:23AM 49.3115 -24.0576 254° West 465 535 34,000  Level FlightAware Transoceanic
09:24AM 49.2752 -24.2479 254° West 465 535 34,000  Level FlightAware Transoceanic
09:25AM 49.2386 -24.4379 253° West 465 535 34,000  Level FlightAware Transoceanic
09:26AM 49.2017 -24.6276 253° West 465 535 34,000  Level FlightAware Transoceanic
09:27AM 49.1645 -24.8171 253° West 465 535 34,000  Level FlightAware Transoceanic
09:28AM 49.1270 -25.0062 253° West 465 535 34,000  Level FlightAware Transoceanic
09:29AM 49.0891 -25.1950 253° West 465 535 34,000  Level FlightAware Transoceanic
09:30AM 49.0510 -25.3836 253° West 465 535 34,000  Level FlightAware Transoceanic
09:31AM 49.0125 -25.5719 253° West 465 535 34,000  Level FlightAware Transoceanic
09:32AM 48.9738 -25.7599 252° West 465 535 34,000  Level FlightAware Transoceanic
09:33AM 48.9347 -25.9476 252° West 465 535 34,000  Level FlightAware Transoceanic
09:34AM 48.8953 -26.1350 252° West 465 535 34,000  Level FlightAware Transoceanic
09:35AM 48.8557 -26.3221 252° West 465 535 34,000  Level FlightAware Transoceanic
09:36AM 48.8157 -26.5089 252° West 465 535 34,000  Level FlightAware Transoceanic
09:37AM 48.7754 -26.6954 252° West 465 535 34,000  Level FlightAware Transoceanic
09:38AM 48.7349 -26.8816 252° West 465 535 34,000  Level FlightAware Transoceanic
09:39AM 48.6940 -27.0675 252° West 465 535 34,000  Level FlightAware Transoceanic
09:40AM 48.6528 -27.2531 251° West 465 535 34,000  Level FlightAware Transoceanic
09:41AM 48.6113 -27.4384 251° West 465 535 34,000  Level FlightAware Transoceanic
09:42AM 48.5696 -27.6234 251° West 465 535 34,000  Level FlightAware Transoceanic
09:43AM 48.5275 -27.8081 251° West 465 535 34,000  Level FlightAware Transoceanic
09:44AM 48.4851 -27.9925 251° West 465 535 34,000  Level FlightAware Transoceanic
09:45AM 48.4425 -28.1765 251° West 465 535 34,000  Level FlightAware Transoceanic
09:46AM 48.3995 -28.3603 251° West 465 535 34,000  Level FlightAware Transoceanic
09:47AM 48.3563 -28.5437 250° West 465 535 34,000  Level FlightAware Transoceanic
09:48AM 48.3128 -28.7269 250° West 465 535 34,000  Level FlightAware Transoceanic
09:49AM 48.2690 -28.9097 250° West 465 535 34,000  Level FlightAware Transoceanic
09:50AM 48.2248 -29.0922 250° West 465 535 34,000  Level FlightAware Transoceanic
09:51AM 48.1805 -29.2744 250° West 465 535 34,000  Level FlightAware Transoceanic
09:52AM 48.1358 -29.4563 250° West 465 535 34,000  Level FlightAware Transoceanic
09:53AM 48.0908 -29.6378 250° West 465 535 34,000  Level FlightAware Transoceanic
09:54AM 48.0455 -29.8191 249° West 465 535 34,000  Level FlightAware Transoceanic
09:55AM 48.0688 -29.9876 282° West  Level Estimated
09:56AM 48.0918 -30.1562 282° West  Level Estimated
09:57AM 48.1145 -30.3249 281° West  Level Estimated
09:58AM 48.1370 -30.4939 281° West  Level Estimated
09:59AM 48.1592 -30.6629 281° West  Level Estimated
10:00AM 48.1812 -30.8321 281° West  Level Estimated
10:01AM 48.2029 -31.0015 281° West  Level Estimated
10:02AM 48.2244 -31.1710 281° West  Level Estimated
10:03AM 48.2457 -31.3406 281° West  Level Estimated
10:04AM 48.2667 -31.5104 281° West  Level Estimated
10:05AM 48.2874 -31.6803 280° West  Level Estimated
10:06AM 48.3079 -31.8504 280° West  Level Estimated
10:07AM 48.3282 -32.0206 280° West  Level Estimated
10:08AM 48.3482 -32.1909 280° West  Level Estimated
10:09AM 48.3679 -32.3614 280° West  Level Estimated
10:10AM 48.3874 -32.5320 280° West  Level Estimated
10:11AM 48.4067 -32.7027 280° West  Level Estimated
10:12AM 48.4256 -32.8735 280° West  Level Estimated
10:13AM 48.4444 -33.0445 279° West  Level Estimated
10:14AM 48.4628 -33.2156 279° West  Level Estimated
10:15AM 48.4811 -33.3868 279° West  Level Estimated
10:16AM 48.4990 -33.5582 279° West  Level Estimated
10:17AM 48.5168 -33.7296 279° West  Level Estimated
10:18AM 48.5342 -33.9012 279° West  Level Estimated
10:18AM 48.0000 -30.0000 257° West 464 534 34,000  Level ETMS Enhanced Traffic Management System
10:19AM 48.5514 -34.0729 279° West  Level Estimated
10:20AM 48.5684 -34.2448 279° West  Level Estimated
10:21AM 48.5851 -34.4167 278° West  Level Estimated
10:22AM 48.6015 -34.5887 278° West  Level Estimated
10:23AM 48.6177 -34.7609 278° West  Level Estimated
10:24AM 47.0539 -35.3665 253° West 464 534 34,000  Level FlightAware Transoceanic
10:25AM 47.0169 -35.5480 253° West 464 534 34,000  Level FlightAware Transoceanic
10:26AM 46.9795 -35.7292 253° West 464 534 34,000  Level FlightAware Transoceanic
10:27AM 46.9419 -35.9102 253° West 464 534 34,000  Level FlightAware Transoceanic
10:28AM 46.9040 -36.0909 253° West 464 534 34,000  Level FlightAware Transoceanic
10:29AM 46.8659 -36.2714 253° West 464 534 34,000  Level FlightAware Transoceanic
10:30AM 46.8274 -36.4516 253° West 464 534 34,000  Level FlightAware Transoceanic
10:31AM 46.7887 -36.6315 252° West 464 534 34,000  Level FlightAware Transoceanic
10:32AM 46.7496 -36.8112 252° West 464 534 34,000  Level FlightAware Transoceanic
10:33AM 46.7103 -36.9907 252° West 464 534 34,000  Level FlightAware Transoceanic
10:34AM 46.6708 -37.1698 252° West 464 534 34,000  Level FlightAware Transoceanic
10:35AM 46.6309 -37.3487 252° West 464 534 34,000  Level FlightAware Transoceanic
10:36AM 46.5908 -37.5274 252° West 464 534 34,000  Level FlightAware Transoceanic
10:37AM 46.5503 -37.7057 252° West 464 534 34,000  Level FlightAware Transoceanic
10:38AM 46.5096 -37.8839 252° West 464 534 34,000  Level FlightAware Transoceanic
10:39AM 46.4687 -38.0617 251° West 464 534 34,000  Level FlightAware Transoceanic
10:40AM 46.4274 -38.2393 251° West 464 534 34,000  Level FlightAware Transoceanic
10:41AM 46.3859 -38.4166 251° West 464 534 34,000  Level FlightAware Transoceanic
10:42AM 46.3441 -38.5936 251° West 464 534 34,000  Level FlightAware Transoceanic
10:43AM 46.3020 -38.7704 251° West 464 534 34,000  Level FlightAware Transoceanic
10:44AM 46.2597 -38.9468 251° West 464 534 34,000  Level FlightAware Transoceanic
10:45AM 46.2171 -39.1231 251° West 464 534 34,000  Level FlightAware Transoceanic
10:46AM 46.1742 -39.2990 251° West 464 534 34,000  Level FlightAware Transoceanic
10:47AM 46.1311 -39.4747 250° West 464 534 34,000  Level FlightAware Transoceanic
10:48AM 46.0876 -39.6501 250° West 464 534 34,000  Level FlightAware Transoceanic
10:49AM 46.0439 -39.8252 250° West 464 534 34,000  Level FlightAware Transoceanic
10:50AM 46.0657 -39.9879 281° West  Level Estimated
10:51AM 46.0872 -40.1507 281° West  Level Estimated
10:52AM 46.1085 -40.3136 281° West  Level Estimated
10:52AM 46.0000 -40.0000 265° West 446 513 34,000  Level ETMS Enhanced Traffic Management System
10:53AM 46.1296 -40.4767 281° West  Level Estimated
10:54AM 46.1505 -40.6398 281° West  Level Estimated
10:55AM 46.1711 -40.8031 280° West  Level Estimated
10:56AM 46.1915 -40.9669 280° West  Level Estimated
10:57AM 46.2117 -41.1308 280° West  Level Estimated
10:58AM 45.9128 -41.4229 264° West 446 513 34,000  Level FlightAware Transoceanic
10:59AM 45.9006 -41.6004 264° West 446 513 34,000  Level FlightAware Transoceanic
11:00AM 45.8882 -41.7779 264° West 446 513 34,000  Level FlightAware Transoceanic
11:01AM 45.8755 -41.9552 264° West 446 513 34,000  Level FlightAware Transoceanic
11:02AM 45.8625 -42.1325 264° West 446 513 34,000  Level FlightAware Transoceanic
11:03AM 45.8493 -42.3097 264° West 446 513 34,000  Level FlightAware Transoceanic
11:04AM 45.8358 -42.4868 264° West 446 513 34,000  Level FlightAware Transoceanic
11:05AM 45.8220 -42.6639 264° West 446 513 34,000  Level FlightAware Transoceanic
11:06AM 45.8079 -42.8408 263° West 446 513 34,000  Level FlightAware Transoceanic
11:07AM 45.7936 -43.0177 263° West 446 513 34,000  Level FlightAware Transoceanic
11:08AM 45.7790 -43.1944 263° West 446 513 34,000  Level FlightAware Transoceanic
11:09AM 45.7641 -43.3711 263° West 446 513 34,000  Level FlightAware Transoceanic
11:10AM 45.7489 -43.5477 263° West 446 513 34,000  Level FlightAware Transoceanic
11:11AM 45.7335 -43.7242 263° West 446 513 34,000  Level FlightAware Transoceanic
11:12AM 45.7178 -43.9006 263° West 446 513 34,000  Level FlightAware Transoceanic
11:13AM 45.7019 -44.0768 263° West 446 513 34,000  Level FlightAware Transoceanic
11:14AM 45.6856 -44.2530 262° West 446 513 34,000  Level FlightAware Transoceanic
11:15AM 45.6691 -44.4291 262° West 446 513 34,000  Level FlightAware Transoceanic
11:16AM 45.6523 -44.6051 262° West 446 513 34,000  Level FlightAware Transoceanic
11:17AM 45.6353 -44.7809 262° West 446 513 34,000  Level FlightAware Transoceanic
11:18AM 45.6180 -44.9567 262° West 446 513 34,000  Level FlightAware Transoceanic
11:19AM 45.6004 -45.1323 262° West 446 513 34,000  Level FlightAware Transoceanic
11:20AM 45.5825 -45.3079 262° West 446 513 34,000  Level FlightAware Transoceanic
11:21AM 45.5644 -45.4833 262° West 446 513 34,000  Level FlightAware Transoceanic
11:22AM 45.5460 -45.6586 261° West 446 513 34,000  Level FlightAware Transoceanic
11:23AM 45.5273 -45.8338 261° West 446 513 34,000  Level FlightAware Transoceanic
11:24AM 45.5084 -46.0089 261° West 446 513 34,000  Level FlightAware Transoceanic
11:25AM 45.4892 -46.1838 261° West 446 513 34,000  Level FlightAware Transoceanic
11:26AM 45.4697 -46.3587 261° West 446 513 34,000  Level FlightAware Transoceanic
11:27AM 45.4500 -46.5334 261° West 446 513 34,000  Level FlightAware Transoceanic
11:28AM 45.4300 -46.7080 261° West 446 513 34,000  Level FlightAware Transoceanic
11:29AM 45.4097 -46.8825 261° West 446 513 34,000  Level FlightAware Transoceanic
11:30AM 45.3892 -47.0568 260° West 446 513 34,000  Level FlightAware Transoceanic
11:31AM 45.3684 -47.2310 260° West 446 513 34,000  Level FlightAware Transoceanic
11:32AM 45.3474 -47.4051 260° West 446 513 34,000  Level FlightAware Transoceanic
11:33AM 45.3260 -47.5791 260° West 446 513 34,000  Level FlightAware Transoceanic
11:34AM 45.3045 -47.7529 260° West 446 513 34,000  Level FlightAware Transoceanic
11:35AM 45.2826 -47.9266 260° West 446 513 34,000  Level FlightAware Transoceanic
11:36AM 45.2605 -48.1001 260° West 446 513 34,000  Level FlightAware Transoceanic
11:37AM 45.2381 -48.2736 260° West 446 513 34,000  Level FlightAware Transoceanic
11:38AM 45.2155 -48.4468 259° West 446 513 34,000  Level FlightAware Transoceanic
11:39AM 45.1926 -48.6200 259° West 446 513 34,000  Level FlightAware Transoceanic
11:40AM 45.1694 -48.7930 259° West 446 513 34,000  Level FlightAware Transoceanic
11:41AM 45.1460 -48.9659 259° West 446 513 34,000  Level FlightAware Transoceanic
11:42AM 45.1223 -49.1386 259° West 446 513 34,000  Level FlightAware Transoceanic
11:43AM 45.0984 -49.3112 259° West 446 513 34,000  Level FlightAware Transoceanic
11:44AM 45.0742 -49.4836 259° West 446 513 34,000  Level FlightAware Transoceanic
11:45AM 45.0497 -49.6559 259° West 446 513 34,000  Level FlightAware Transoceanic
11:46AM 45.0250 -49.8280 258° West 446 513 34,000  Level FlightAware Transoceanic
11:47AM 45.0449 -49.9882 280° West  Level Estimated
11:48AM 45.0646 -50.1486 280° West  Level Estimated
11:48AM 45.0000 -50.0000 265° West 426 490 34,000  Level ETMS Enhanced Traffic Management System
11:49AM 45.0841 -50.3090 280° West  Level Estimated
11:49AM 44.9500 -50.3000 279° West 440 506 34,000  Level Gander Center
11:50AM 45.1034 -50.4699 280° West  Level Estimated
11:50AM 44.9500 -50.5000 270° West 440 506 34,000  Level Gander Center
11:51AM 45.1225 -50.6310 280° West  Level Estimated
11:51AM 44.9667 -50.6667 278° West 440 506 34,000  Level Gander Center
11:52AM 45.1413 -50.7921 279° West  Level Estimated
11:52AM 44.9667 -50.8333 270° West 430 495 34,000  Level Gander Center
11:53AM 45.1599 -50.9533 279° West  Level Estimated
11:53AM 44.9833 -51.0167 277° West 440 506 34,000  Level Gander Center
11:54AM 45.1168 -50.9646 280° West  Level Estimated
11:54AM 44.9833 -51.1833 270° West 440 506 34,000  Level Gander Center
11:55AM 45.1359 -51.1290 279° West  Level Estimated
11:55AM 45.0000 -51.3333 279° West 440 506 34,000  Level Gander Center
11:56AM 45.0000 -51.5000 270° West 440 506 34,800 900 Climbing Gander Center
11:57AM 45.0167 -51.6667 278° West 440 506 35,800 600 Climbing Gander Center
11:58AM 45.0167 -51.8333 270° West 430 495 36,000 300 Climbing Gander Center
11:59AM 45.0333 -52.0000 278° West 430 495 36,400 600 Climbing Gander Center
12:00PM 45.0333 -52.1667 270° West 420 483 37,300 780 Climbing Gander Center
12:01PM 45.0333 -52.3333 270° West 430 495 38,000 300 Climbing Gander Center
12:02PM 45.0333 -52.5000 270° West 430 495 38,000  Level Gander Center
12:03PM 45.0500 -52.6667 278° West 410 472 38,000  Level Gander Center
12:04PM 45.0667 -52.8167 279° West 410 472 38,000  Level Gander Center
12:05PM 45.0667 -52.9833 270° West 420 483 38,000  Level Gander Center
12:06PM 45.0667 -53.1500 270° West 410 472 38,000  Level Gander Center
12:07PM 45.0667 -53.3167 270° West 420 483 38,000  Level Gander Center
12:08PM 45.0833 -53.4833 278° West 420 483 38,000  Level Gander Center
12:14PM 45.1140 -54.4930 278° West 421 484 38,000  Level FlightAware
12:17PM 45.1200 -54.9850 271° West 421 484 38,000  Level FlightAware
12:18PM 45.1210 -55.0740 271° West 421 484 38,000  Level FlightAware
12:19PM 45.1230 -55.2240 271° West 421 484 38,000  Level FlightAware
12:20PM 45.1240 -55.3090 271° West 421 484 38,000  Level FlightAware
12:21PM 45.1260 -55.4520 271° West 421 484 38,000  Level FlightAware
12:21PM 45.1270 -55.5360 271° West 421 484 38,000  Level FlightAware
12:22PM 45.1280 -55.6490 271° West 421 484 38,000  Level FlightAware
12:23PM 45.1290 -55.7360 271° West 421 484 38,000  Level FlightAware
12:23PM 45.1310 -55.8460 272° West 421 484 38,000  Level FlightAware
12:24PM 45.1320 -55.9310 271° West 421 484 38,000  Level FlightAware
12:27PM 45.1310 -56.6960 270° West 427 491 38,000  Level FlightAware
12:28PM 45.1310 -56.7880 270° West 426 490 38,000  Level FlightAware
12:29PM 45.1310 -56.9240 270° West 426 490 38,000  Level FlightAware
12:29PM 45.1300 -57.0400 269° West 426 490 38,000  Level FlightAware
12:30PM 45.1290 -57.1890 270° West 425 489 38,000  Level FlightAware
12:31PM 45.1290 -57.3180 270° West 426 490 38,000  Level FlightAware
12:32PM 45.1280 -57.4240 269° West 426 490 38,000  Level FlightAware
12:32PM 45.1270 -57.5380 269° West 426 490 38,000  Level FlightAware
12:33PM 45.1260 -57.6670 269° West 426 490 38,000  Level FlightAware
12:34PM 45.1240 -57.7790 269° West 426 490 38,000  Level FlightAware
12:34PM 45.1230 -57.9020 269° West 426 490 38,000  Level FlightAware
12:35PM 45.1220 -58.0010 269° West 426 490 38,000  Level FlightAware
12:36PM 45.1200 -58.1300 269° West 426 490 38,000  Level FlightAware
12:36PM 45.1180 -58.2340 268° West 426 490 38,000  Level FlightAware
12:37PM 45.1170 -58.3510 269° West 426 490 38,000  Level FlightAware
12:38PM 45.1140 -58.4800 268° West 426 490 38,000  Level FlightAware
12:39PM 45.1120 -58.5920 269° West 427 491 38,000  Level FlightAware
12:39PM 45.1100 -58.7120 269° West 427 491 38,000  Level FlightAware
12:40PM 45.1080 -58.8130 268° West 426 490 38,000  Level FlightAware
12:41PM 45.1050 -58.9520 268° West 424 488 38,000  Level FlightAware
12:41PM 45.1030 -59.0570 268° West 423 487 38,000  Level FlightAware
12:42PM 45.1000 -59.1770 268° West 423 487 38,000  Level FlightAware
12:43PM 45.0980 -59.2870 269° West 422 486 38,000  Level FlightAware
12:44PM 45.0950 -59.3980 268° West 422 486 38,000  Level FlightAware
12:44PM 45.0920 -59.5320 268° West 423 487 38,000  Level FlightAware
12:44PM 45.0910 -59.5540 266° West 422 486 38,000  Level FlightAware
12:47PM 45.0800 -59.9440 268° West 423 487 38,000  Level FlightAware
12:48PM 45.0750 -60.1100 268° West 424 488 38,000  Level FlightAware
12:48PM 45.0710 -60.2190 267° West 424 488 38,000  Level FlightAware
12:49PM 45.0680 -60.3300 268° West 423 487 38,000  Level FlightAware
12:50PM 45.0640 -60.4280 267° West 421 484 38,000  Level FlightAware
12:51PM 45.0590 -60.5830 267° West 420 483 38,000  Level FlightAware
12:51PM 45.0540 -60.7200 267° West 420 483 38,000  Level FlightAware
12:52PM 45.0500 -60.8330 267° West 419 482 38,000  Level FlightAware
12:53PM 45.0450 -60.9460 266° West 418 481 38,000  Level FlightAware
12:53PM 45.0410 -61.0500 267° West 418 481 38,000  Level FlightAware
12:54PM 45.0370 -61.1450 267° West 418 481 38,000  Level FlightAware
12:55PM 45.0310 -61.2590 266° West 418 481 38,000  Level FlightAware
12:56PM 45.0270 -61.3440 266° West 418 481 38,000  Level FlightAware
12:56PM 45.0210 -61.4580 266° West 418 481 38,000  Level FlightAware
12:57PM 45.0170 -61.5460 266° West 418 481 38,000  Level FlightAware
12:58PM 45.0130 -61.6250 266° West 418 481 38,000  Level FlightAware
12:58PM 45.0090 -61.7060 266° West 418 481 38,000  Level FlightAware
12:59PM 45.0030 -61.8180 266° West 418 481 38,000  Level FlightAware
01:02PM 44.9860 -62.1770 266° West 418 481 38,000  Level FlightAware
01:02PM 44.9800 -62.2840 266° West 418 481 38,000  Level FlightAware
01:03PM 44.9760 -62.3670 266° West 418 481 38,000  Level FlightAware
01:04PM 44.9720 -62.4600 267° West 418 481 38,000  Level FlightAware
01:06PM 44.9410 -63.0930 266° West 409 471 38,000  Level FlightAware
01:07PM 44.9360 -63.1920 266° West 408 470 38,000  Level FlightAware
01:08PM 44.9280 -63.3220 265° West 409 471 38,000  Level FlightAware
01:08PM 44.9310 -63.4550 272° West 415 478 38,000  Level FlightAware
01:09PM 44.9500 -63.5820 282° West 417 480 38,000  Level FlightAware
01:10PM 44.9680 -63.6940 283° West 416 479 38,000  Level FlightAware
01:10PM 44.9800 -63.7730 282° West 416 479 38,000  Level FlightAware
01:11PM 44.9940 -63.8700 282° West 416 479 38,000  Level FlightAware
01:12PM 45.0120 -63.9920 282° West 416 479 38,000  Level FlightAware
01:12PM 45.0290 -64.1040 282° West 416 479 38,000  Level FlightAware
01:13PM 45.0430 -64.2030 281° West 416 479 38,000  Level FlightAware
01:14PM 45.0600 -64.3200 282° West 416 479 38,000  Level FlightAware
01:14PM 45.0750 -64.4230 282° West 415 478 38,000  Level FlightAware
01:16PM 45.1050 -64.6340 281° West 417 480 38,000  Level FlightAware
01:17PM 45.1270 -64.7900 281° West 416 479 38,000  Level FlightAware
01:17PM 45.1440 -64.9060 282° West 417 480 38,000  Level FlightAware
01:18PM 45.1570 -65.0030 281° West 416 479 38,000  Level FlightAware
01:19PM 45.1750 -65.1310 281° West 415 478 38,000  Level FlightAware
01:20PM 45.1900 -65.2390 281° West 416 479 38,000  Level FlightAware
01:20PM 45.2050 -65.3550 280° West 417 480 38,000  Level FlightAware
01:21PM 45.2200 -65.4610 281° West 417 480 38,000  Level FlightAware
01:22PM 45.2330 -65.5620 280° West 417 480 38,000  Level FlightAware
01:22PM 45.2500 -65.6860 281° West 408 470 38,000  Level FlightAware
01:23PM 45.2650 -65.8040 280° West 407 468 38,000  Level FlightAware
01:24PM 45.2780 -65.9010 281° West 408 470 38,000  Level FlightAware
01:24PM 45.2930 -66.0140 281° West 408 470 38,000  Level FlightAware
01:25PM 45.3060 -66.1150 280° West 407 468 38,000  Level FlightAware
01:26PM 45.3210 -66.2330 280° West 407 468 38,000  Level FlightAware
01:27PM 45.3380 -66.3720 280° West 407 468 38,000  Level FlightAware
01:27PM 45.3520 -66.4840 280° West 406 467 38,000  Level FlightAware
01:28PM 45.3660 -66.5940 280° West 404 465 38,000  Level FlightAware
01:29PM 45.3810 -66.7190 280° West 402 463 38,000  Level FlightAware
01:30PM 45.3980 -66.8590 280° West 402 463 38,000  Level FlightAware
01:31PM 45.4120 -66.9730 280° West 403 464 38,000  Level FlightAware
01:31PM 45.4300 -67.1210 280° West 403 464 38,000  Level FlightAware
01:32PM 45.4420 -67.2200 280° West 403 464 38,000  Level FlightAware
01:33PM 45.4520 -67.3090 279° West 403 464 38,000  Level FlightAware
01:34PM 45.4670 -67.4380 279° West 403 464 38,000  Level FlightAware
01:34PM 45.4810 -67.5550 280° West 404 465 38,000  Level FlightAware
01:35PM 45.4960 -67.6890 279° West 404 465 38,000  Level FlightAware
01:36PM 45.5090 -67.8050 279° West 402 463 38,000  Level FlightAware
01:37PM 45.5220 -67.9250 279° West 402 463 38,000  Level FlightAware
01:37PM 45.5340 -68.0270 280° West 401 461 38,000  Level FlightAware
01:38PM 45.5470 -68.1430 279° West 401 461 38,000  Level FlightAware
01:39PM 45.5570 -68.2430 278° West 402 463 38,000  Level FlightAware
01:39PM 45.5700 -68.3620 279° West 402 463 38,000  Level FlightAware
01:40PM 45.5850 -68.5090 278° West 401 461 38,000  Level FlightAware
01:41PM 45.5910 -68.5940 276° West 400 460 38,000  Level FlightAware
01:42PM 45.5980 -68.7180 275° West 400 460 38,000  Level FlightAware
01:42PM 45.6040 -68.8360 274° West 399 459 38,000  Level FlightAware
01:43PM 45.6100 -68.9460 274° West 399 459 38,000  Level FlightAware
01:44PM 45.6150 -69.0480 274° West 398 458 38,000  Level FlightAware
01:44PM 45.6210 -69.1550 275° West 397 457 38,000  Level FlightAware
01:45PM 45.6260 -69.2660 274° West 397 457 38,000  Level FlightAware
01:46PM 45.6320 -69.3800 274° West 396 456 38,000  Level FlightAware
01:47PM 45.6370 -69.4880 274° West 395 455 38,000  Level FlightAware
01:47PM 45.6430 -69.6010 274° West 394 453 38,000  Level FlightAware
01:48PM 45.6480 -69.7100 274° West 393 452 38,000  Level FlightAware
01:49PM 45.6520 -69.8120 273° West 394 453 38,000  Level FlightAware
01:49PM 45.6570 -69.9150 274° West 392 451 38,000  Level FlightAware
01:50PM 45.6610 -70.0140 273° West 391 450 38,000  Level FlightAware
01:51PM 45.6670 -70.1430 274° West 390 449 38,000  Level FlightAware
01:52PM 45.6710 -70.2500 273° West 390 449 38,000  Level FlightAware
01:52PM 45.6750 -70.3530 273° West 388 447 38,000  Level FlightAware
01:53PM 45.6790 -70.4500 273° West 389 448 38,000  Level FlightAware
01:54PM 45.6840 -70.5720 273° West 390 449 38,000  Level FlightAware
01:54PM 45.6880 -70.6840 273° West 392 451 38,000  Level FlightAware
01:55PM 45.6920 -70.7840 273° West 393 452 38,000 -180 Level FlightAware
01:56PM 45.6950 -70.8850 272° West 385 443 37,800 -780 Descending FlightAware
01:56PM 45.6990 -70.9980 273° West 383 441 36,900 -1,560 Descending FlightAware
01:57PM 45.7030 -71.1190 273° West 391 450 35,500 -1,740 Descending FlightAware
01:58PM 45.7060 -71.2120 273° West 401 461 34,500 -1,620 Descending FlightAware
01:59PM 45.7100 -71.3340 273° West 405 466 33,400 -1,500 Descending FlightAware
01:59PM 45.7130 -71.4300 273° West 407 468 32,500 -1,440 Descending FlightAware
01:59PM 45.7150 -71.4790 273° West 408 470 32,100 -1,320 Descending FlightAware
02:01PM 45.7230 -71.7700 272° West 410 472 29,900 -1,260 Descending FlightAware
02:02PM 45.7260 -71.8790 272° West 413 475 29,100 -1,020 Descending FlightAware
02:03PM 45.7290 -71.9870 272° West 408 470 28,600 -780 Descending FlightAware
02:03PM 45.7320 -72.0940 272° West 405 466 28,100 -420 Descending FlightAware
02:04PM 45.7350 -72.2250 272° West 397 457 28,000 -120 Descending FlightAware
02:05PM 45.7370 -72.3290 272° West 393 452 28,000 -180 Level FlightAware
02:05PM 45.7390 -72.4330 272° West 397 457 27,800 -1,500 Descending FlightAware
02:06PM 45.7420 -72.5510 272° West 397 457 25,900 -3,300 Descending FlightAware
02:07PM 45.7440 -72.6560 272° West 419 482 23,200 -3,480 Descending FlightAware
02:08PM 45.7400 -72.8200 268° West 421 484 20,200 -2,700 Descending FlightAware
02:08PM 45.7290 -72.9290 262° West 398 458 18,800 -2,160 Descending FlightAware
02:09PM 45.7170 -73.0380 261° West 383 441 17,200 -2,400 Descending FlightAware
02:10PM 45.7030 -73.1280 257° West 377 434 15,600 -2,520 Descending FlightAware
02:11PM 45.6610 -73.2310 240° Southwest 372 428 13,700 -1,500 Descending FlightAware
02:11PM 45.6270 -73.3080 238° Southwest 371 427 13,400 -2,220 Descending FlightAware
02:12PM 45.5880 -73.3960 238° Southwest 350 403 10,700 -2,340 Descending FlightAware
02:13PM 45.5450 -73.4640 228° Southwest 314 361 10,300 -480 Descending FlightAware
02:13PM 45.5040 -73.5180 223° Southwest 280 322 10,100 -660 Descending FlightAware
02:14PM 45.4810 -73.5490 223° Southwest 272 313 9,600 -1,440 Descending FlightAware
02:14PM 45.4630 -73.5730 223° Southwest 271 312 9,000 -1,920 Descending FlightAware
02:15PM 45.4370 -73.6080 223° Southwest 269 310 8,100 -1,800 Descending FlightAware
02:15PM 45.4130 -73.6390 222° Southwest 268 308 7,400 -1,440 Descending FlightAware
02:15PM 45.3990 -73.6570 222° Southwest 266 306 7,100 -1,260 Descending FlightAware
02:16PM 45.3740 -73.6900 223° Southwest 262 302 6,500 -1,380 Descending FlightAware
02:16PM 45.3510 -73.7200 223° Southwest 262 302 5,900 -1,560 Descending FlightAware
02:17PM 45.3250 -73.7540 223° Southwest 266 306 5,100 -1,380 Descending FlightAware
02:17PM 45.3040 -73.7820 223° Southwest 256 295 4,700 -960 Descending FlightAware
02:18PM 45.2770 -73.8160 222° Southwest 230 265 4,200 -660 Descending FlightAware
02:18PM 45.2590 -73.8420 225° Southwest 223 257 4,100 -180 Descending FlightAware
02:18PM 45.2550 -73.8640 256° West 213 245 4,100 -180 Level FlightAware
02:19PM 45.2700 -73.8910 308° West 203 234 4,000 -420 Descending FlightAware
02:19PM 45.2850 -73.8960 347° North 205 236 3,800 -840 Descending FlightAware
02:19PM 45.3120 -73.9040 348° North 196 226 3,400 -720 Descending FlightAware
02:20PM 45.3310 -73.9080 352° North 188 216 3,200 -420 Descending FlightAware
02:20PM 45.3520 -73.9000 15° North 194 223 3,100 -720 Descending FlightAware
02:21PM 45.3660 -73.8900 27° Northeast 200 230 2,700 -1,080 Descending FlightAware
02:21PM 45.3840 -73.8650 44° Northeast 196 226 2,300 -1,080 Descending FlightAware
02:21PM 45.3950 -73.8520 40° Northeast 193 222 2,000 -1,080 Descending FlightAware
02:22PM 45.4130 -73.8270 44° Northeast 186 214 1,500 -900 Descending FlightAware
02:22PM 45.4310 -73.8050 41° Northeast 157 181 1,100 -900 Descending FlightAware
02:23PM 45.4430 -73.7890 43° Northeast 138 159 700 -780 Descending FlightAware
02:23PM 45.4570 -73.7700 44° Northeast 140 161 400 -600 Descending FlightAware
02:24PM 45.4700 -73.7530 43° Northeast 100 115 -840 Descending FlightAware
02:24PM 45.4740 -73.7480 41° Northeast 56 64  Level FlightAware
02:25PM 45.4780 -73.7420 46° Northeast 19 22  Level FlightAware
02:25PM 45.4770 -73.7400 125° Southeast 9 10  Level FlightAware
02:26PM 45.4750 -73.7420 215° Southwest 17 20  Level FlightAware
02:26PM 45.4740 -73.7440 235° Southwest 20 23  Level FlightAware